Portada
METAR-TAF:

METAR-TAF

Aeropuertos :

Aeropuerto de Nápoles-Capodichino

Nápoles, Italia

latitud: 40-51N, longitud: 014-18E, altitud: 88 m

Observación

El informe se hizo hace 33 minutos, a las 08:50 UTC
Viento 5 kt con dirección variable
Temperatura 13°C
Humedad 58%
Presión 1024 hPa
Visibilidad 10 km o más
Nubes dispersas a una altura de 4000 ft
Cielo nuboso a una altura de 8000 ft

METAR: LIRN 070850Z VRB05KT 9999 SCT040 BKN080 13/05 Q1024 NOSIG

Hora: 10:23 (09:23 UTC)

Pronóstico

El informe se hizo hace 4 horas y 23 minutos, a las 05:00 UTC
Pronóstico válido del 07 a las 06 UTC al 08 a las 06 UTC
Viento 5 kt con dirección variable
Visibilidad 10 km o más
Nubes dispersas a una altura de 4000 ft
Temporalmente
del 07 a las 10 UTC al 07 a las 16 UTC
lluvia
Temporalmente
del 07 a las 22 UTC al 08 a las 06 UTC
lluvia

TAF: LIRN 070500Z 0706/0806 VRB05KT 9999 SCT040 TEMPO 0710/0716 RA TEMPO 0722/0806 RA

Observaciones y pronósticos meteorológicos de más de 4000 aeropuertos (mensajes METAR y TAF).

Los puntos amarillos y rojos representan las estaciones disponibles.

Ponga el ratón en el punto deseado para ver el nombre de la estación.

Haga clic para ver las observaciones y los pronósticos meteorológicos.

Para cambiar el mapa : haga clic en los botones verdes con una cruz de color negro para hacer un zoom, en el botón verde con un guión para alejar o en las flechas verdes para mapas adyacentes.


METAR-TAF: